createdAt,value
2023-01-17T00:01:12.800Z,67.85
2023-01-17T00:03:57.225Z,67.63
2023-01-17T00:06:46.036Z,67.97
2023-01-17T00:09:34.635Z,67.83
2023-01-17T00:12:05.594Z,68.05
2023-01-17T00:14:36.051Z,67.96
2023-01-17T00:17:06.479Z,68.05
2023-01-17T00:19:54.491Z,68.16
2023-01-17T00:22:44.149Z,67.81
2023-01-17T00:25:34.378Z,68.29
2023-01-17T00:28:04.588Z,68.45
2023-01-17T00:30:34.267Z,68.41
2023-01-17T00:33:04.043Z,68.26
2023-01-17T00:35:34.587Z,68.47
2023-01-17T00:38:06.646Z,68.34
2023-01-17T00:40:37.672Z,68.60
2023-01-17T00:43:26.257Z,68.56
2023-01-17T00:46:15.049Z,68.59
2023-01-17T00:49:03.964Z,68.48
2023-01-17T00:51:53.584Z,68.67
2023-01-17T00:54:42.066Z,68.52
2023-01-17T00:57:30.131Z,68.70
2023-01-17T01:00:18.033Z,68.51
2023-01-17T01:03:06.304Z,68.48
2023-01-17T01:05:55.190Z,68.76
2023-01-17T01:08:45.476Z,68.77
2023-01-17T01:11:35.313Z,68.44
2023-01-17T01:14:25.201Z,68.73
2023-01-17T01:17:13.132Z,68.84
2023-01-17T01:20:01.577Z,68.80
2023-01-17T01:22:49.663Z,68.86
2023-01-17T01:25:38.064Z,68.89
2023-01-17T01:28:29.626Z,68.82
2023-01-17T01:31:19.563Z,68.86
2023-01-17T01:33:51.737Z,69.02
2023-01-17T01:36:22.794Z,68.77
2023-01-17T01:38:54.616Z,68.70
2023-01-17T01:41:25.477Z,68.77
2023-01-17T01:43:57.015Z,69.08
2023-01-17T01:46:33.085Z,69.00
2023-01-17T01:49:07.202Z,68.79
2023-01-17T01:51:42.272Z,68.85
2023-01-17T01:54:16.062Z,69.10
2023-01-17T01:56:48.425Z,68.55
2023-01-17T01:59:22.170Z,68.72
2023-01-17T02:01:57.004Z,68.22
2023-01-17T02:04:28.719Z,68.61
2023-01-17T02:07:06.751Z,68.11
2023-01-17T02:09:37.558Z,67.90
2023-01-17T02:12:09.609Z,67.66
2023-01-17T02:14:40.156Z,67.57
2023-01-17T02:17:21.520Z,67.64
2023-01-17T02:20:42.493Z,67.36
2023-01-17T02:23:56.462Z,67.20
2023-01-17T02:26:55.495Z,67.10
2023-01-17T02:29:54.835Z,67.11
2023-01-17T02:32:36.784Z,67.11
2023-01-17T02:35:14.851Z,66.83
2023-01-17T02:37:52.140Z,66.99
2023-01-17T02:40:28.028Z,66.74
2023-01-17T02:43:02.807Z,66.59
2023-01-17T02:45:33.284Z,66.57
2023-01-17T02:48:04.656Z,66.59
2023-01-17T02:50:48.898Z,66.62
2023-01-17T02:53:38.054Z,66.54
2023-01-17T02:56:19.180Z,66.67
2023-01-17T02:59:05.654Z,66.27
2023-01-17T03:01:46.400Z,66.17
2023-01-17T03:04:22.074Z,65.98
2023-01-17T03:06:56.342Z,66.04
2023-01-17T03:09:29.074Z,65.60
2023-01-17T03:12:00.643Z,65.86
2023-01-17T03:14:34.477Z,66.03
2023-01-17T03:17:05.181Z,65.55
2023-01-17T03:19:35.717Z,65.57
2023-01-17T03:22:06.412Z,65.58
2023-01-17T03:24:36.861Z,65.46
2023-01-17T03:27:07.301Z,65.60
2023-01-17T03:29:37.729Z,65.03
2023-01-17T03:32:08.744Z,65.48
2023-01-17T03:34:39.172Z,65.13
2023-01-17T03:37:09.716Z,65.04
2023-01-17T03:39:40.134Z,64.97
2023-01-17T03:42:10.587Z,64.77
2023-01-17T03:44:41.010Z,64.98
2023-01-17T03:47:12.449Z,64.81
2023-01-17T03:49:43.354Z,64.96
2023-01-17T03:52:13.754Z,64.64
2023-01-17T03:54:44.351Z,64.71
2023-01-17T03:57:15.810Z,65.06
2023-01-17T03:59:47.442Z,64.73
2023-01-17T04:02:17.916Z,64.76
2023-01-17T04:04:48.885Z,65.16
2023-01-17T04:07:19.411Z,64.78
2023-01-17T04:09:49.858Z,65.16
2023-01-17T04:12:20.598Z,65.05
2023-01-17T04:14:51.100Z,65.06
2023-01-17T04:17:22.175Z,65.00
2023-01-17T04:19:52.858Z,65.23
2023-01-17T04:22:23.292Z,65.25
2023-01-17T04:24:53.772Z,65.15
2023-01-17T04:27:24.184Z,65.00
2023-01-17T04:29:54.688Z,64.91
2023-01-17T04:32:25.105Z,64.94
2023-01-17T04:34:55.586Z,65.18
2023-01-17T04:37:26.058Z,64.97
2023-01-17T04:39:56.537Z,65.17
2023-01-17T04:42:26.962Z,65.25
2023-01-17T04:44:57.451Z,65.02
2023-01-17T04:47:27.955Z,65.14
2023-01-17T04:49:58.455Z,65.17
2023-01-17T04:52:28.876Z,64.85
2023-01-17T04:54:59.386Z,65.15
2023-01-17T04:57:29.857Z,65.32
2023-01-17T05:00:00.407Z,65.18
2023-01-17T05:02:30.907Z,65.34
2023-01-17T05:05:01.471Z,65.12
2023-01-17T05:07:31.892Z,65.27
2023-01-17T05:10:02.300Z,65.27
2023-01-17T05:12:32.773Z,65.34
2023-01-17T05:15:03.248Z,65.30
2023-01-17T05:17:33.682Z,65.24
2023-01-17T05:20:04.704Z,65.09
2023-01-17T05:22:35.113Z,65.12
2023-01-17T05:25:06.066Z,65.03
2023-01-17T05:27:36.572Z,65.50
2023-01-17T05:30:09.007Z,65.23
2023-01-17T05:32:39.453Z,64.86
2023-01-17T05:35:11.401Z,65.12
2023-01-17T05:37:48.881Z,64.95
2023-01-17T05:40:21.711Z,64.96
2023-01-17T05:42:54.203Z,65.03
2023-01-17T05:45:28.954Z,64.81
2023-01-17T05:48:00.321Z,64.82
2023-01-17T05:50:33.191Z,64.66
2023-01-17T05:53:05.867Z,65.06
2023-01-17T05:55:37.317Z,64.90
2023-01-17T05:58:09.747Z,64.81
2023-01-17T06:00:40.215Z,64.81
2023-01-17T06:03:11.416Z,64.72
2023-01-17T06:05:41.995Z,64.56
2023-01-17T06:08:12.628Z,64.39
2023-01-17T06:10:45.235Z,64.33
2023-01-17T06:13:20.963Z,64.20
2023-01-17T06:15:51.697Z,63.81
2023-01-17T06:18:22.152Z,63.66
2023-01-17T06:20:56.321Z,63.79
2023-01-17T06:23:27.075Z,63.74
2023-01-17T06:25:57.697Z,63.49
2023-01-17T06:28:28.302Z,63.43
2023-01-17T06:31:00.010Z,63.23
2023-01-17T06:33:30.438Z,63.12
2023-01-17T06:36:00.933Z,63.06
2023-01-17T06:38:31.377Z,63.15
2023-01-17T06:41:04.488Z,63.35
2023-01-17T06:43:35.003Z,63.33
2023-01-17T06:46:05.714Z,63.44
2023-01-17T06:48:36.129Z,63.12
2023-01-17T06:51:07.002Z,63.25
2023-01-17T06:53:37.717Z,63.29
2023-01-17T06:56:08.838Z,63.17
2023-01-17T06:58:39.356Z,62.91
2023-01-17T07:01:12.104Z,63.04
2023-01-17T07:03:42.844Z,62.87
2023-01-17T07:06:13.456Z,63.15
2023-01-17T07:08:43.891Z,62.90
2023-01-17T07:11:14.603Z,62.83
2023-01-17T07:13:45.012Z,62.78
2023-01-17T07:16:15.469Z,62.84
2023-01-17T07:18:45.876Z,62.67
2023-01-17T07:21:17.335Z,62.74
2023-01-17T07:23:48.252Z,62.74
2023-01-17T07:26:19.531Z,62.79
2023-01-17T07:28:50.014Z,62.45
2023-01-17T07:31:20.501Z,62.76
2023-01-17T07:33:50.928Z,62.62
2023-01-17T07:36:22.259Z,62.31
2023-01-17T07:38:52.718Z,62.39
2023-01-17T07:41:23.176Z,62.29
2023-01-17T07:43:56.197Z,62.23
2023-01-17T07:46:26.988Z,62.24
2023-01-17T07:48:57.522Z,61.99
2023-01-17T07:51:27.920Z,61.98
2023-01-17T07:53:58.398Z,61.71
2023-01-17T07:56:29.166Z,61.98
2023-01-17T07:58:59.689Z,61.95
2023-01-17T08:01:30.255Z,61.77
2023-01-17T08:04:00.884Z,61.53
2023-01-17T08:06:31.796Z,61.49
2023-01-17T08:09:02.319Z,61.77
2023-01-17T08:11:32.787Z,61.64
2023-01-17T08:14:03.286Z,61.46
2023-01-17T08:16:33.706Z,61.52
2023-01-17T08:19:04.249Z,61.49
2023-01-17T08:21:34.670Z,61.46
2023-01-17T08:24:05.491Z,61.14
2023-01-17T08:26:36.232Z,61.26
2023-01-17T08:29:06.712Z,61.06
2023-01-17T08:31:37.929Z,61.20
2023-01-17T08:34:08.452Z,61.02
2023-01-17T08:36:38.862Z,60.88
2023-01-17T08:39:09.292Z,60.79
2023-01-17T08:41:40.113Z,60.41
2023-01-17T08:44:10.980Z,60.54
2023-01-17T08:46:44.176Z,60.42
2023-01-17T08:49:15.097Z,60.69
2023-01-17T08:51:45.555Z,60.43
2023-01-17T08:54:16.664Z,60.23
2023-01-17T08:56:47.678Z,60.18
2023-01-17T08:59:18.408Z,60.15
2023-01-17T09:01:49.018Z,59.67
2023-01-17T09:04:19.612Z,59.88
2023-01-17T09:06:50.205Z,60.01
2023-01-17T09:09:20.675Z,59.70
2023-01-17T09:11:51.135Z,59.72
2023-01-17T09:14:21.911Z,59.59
2023-01-17T09:16:52.354Z,59.81
2023-01-17T09:19:22.829Z,59.67
2023-01-17T09:21:53.245Z,59.45
2023-01-17T09:24:23.702Z,59.46
2023-01-17T09:26:54.132Z,59.32
2023-01-17T09:29:24.706Z,59.16
2023-01-17T09:31:55.150Z,58.82
2023-01-17T09:34:25.644Z,58.71
2023-01-17T09:36:56.999Z,58.40
2023-01-17T09:39:27.642Z,57.99
2023-01-17T09:42:04.147Z,57.97
2023-01-17T09:44:42.343Z,57.06
2023-01-17T09:47:33.941Z,56.69
2023-01-17T09:50:16.845Z,56.16
2023-01-17T09:52:48.035Z,55.74
2023-01-17T09:55:20.246Z,55.45
2023-01-17T09:57:55.008Z,55.45
2023-01-17T10:00:38.583Z,55.09
2023-01-17T10:03:28.487Z,54.91
2023-01-17T10:06:34.687Z,54.83
2023-01-17T10:09:19.297Z,54.57
2023-01-17T10:12:03.939Z,54.67
2023-01-17T10:14:53.697Z,54.39
2023-01-17T10:17:38.693Z,54.38
2023-01-17T10:20:25.875Z,54.46
2023-01-17T10:23:12.678Z,53.98
2023-01-17T10:25:48.796Z,53.55
2023-01-17T10:28:24.589Z,53.60
2023-01-17T10:30:59.509Z,53.60
2023-01-17T10:33:36.332Z,53.23
2023-01-17T10:36:15.429Z,52.98
2023-01-17T10:38:48.953Z,52.90
2023-01-17T10:41:25.319Z,52.39
2023-01-17T10:44:02.471Z,52.36
2023-01-17T10:46:40.649Z,52.41
2023-01-17T10:49:18.858Z,51.98
2023-01-17T10:52:18.456Z,51.73
2023-01-17T10:55:05.193Z,51.89
2023-01-17T10:57:41.810Z,51.82
2023-01-17T11:00:43.915Z,51.52
2023-01-17T11:03:16.174Z,51.66
2023-01-17T11:05:46.775Z,51.80
2023-01-17T11:08:17.829Z,52.00
2023-01-17T11:10:51.003Z,52.14
2023-01-17T11:13:27.077Z,52.19
2023-01-17T11:16:00.849Z,52.19
2023-01-17T11:18:33.376Z,52.12
2023-01-17T11:21:15.366Z,51.90
2023-01-17T11:23:47.824Z,51.64
2023-01-17T11:26:28.117Z,51.46
2023-01-17T11:29:17.977Z,51.72
2023-01-17T11:31:48.403Z,51.66
2023-01-17T11:34:23.837Z,50.97
2023-01-17T11:37:11.181Z,50.55
2023-01-17T11:39:43.559Z,50.05
2023-01-17T11:42:34.839Z,49.84
2023-01-17T11:45:25.414Z,49.62
2023-01-17T11:48:14.005Z,49.80
2023-01-17T11:50:48.711Z,49.53
2023-01-17T11:53:23.618Z,49.30
2023-01-17T11:56:02.768Z,49.53
2023-01-17T11:58:36.217Z,48.87
2023-01-17T12:01:21.416Z,49.09
2023-01-17T12:04:16.683Z,48.54
2023-01-17T12:06:57.886Z,48.54
2023-01-17T12:09:40.359Z,48.73
2023-01-17T12:12:41.568Z,48.15
2023-01-17T12:15:24.441Z,48.11
2023-01-17T12:18:18.015Z,47.61
2023-01-17T12:20:57.658Z,47.56
2023-01-17T12:23:44.403Z,47.70
2023-01-17T12:26:31.078Z,47.11
2023-01-17T12:29:16.682Z,46.47
2023-01-17T12:31:57.938Z,46.27
2023-01-17T12:34:33.212Z,46.18
2023-01-17T12:37:16.602Z,46.00
2023-01-17T12:39:53.803Z,46.02
2023-01-17T12:42:27.408Z,46.17
2023-01-17T12:45:03.553Z,46.27
2023-01-17T12:47:38.545Z,46.39
2023-01-17T12:50:21.619Z,46.32
2023-01-17T12:53:00.498Z,46.75
2023-01-17T12:55:42.888Z,46.44
2023-01-17T12:58:21.719Z,46.32
2023-01-17T13:00:59.687Z,46.00
2023-01-17T13:03:41.312Z,45.92
2023-01-17T13:06:23.215Z,45.71
2023-01-17T13:08:59.454Z,45.69
2023-01-17T13:11:39.080Z,45.53
2023-01-17T13:14:11.822Z,45.03
2023-01-17T13:16:47.283Z,45.34
2023-01-17T13:19:27.170Z,44.80
2023-01-17T13:22:01.063Z,44.87
2023-01-17T13:24:43.467Z,45.00
2023-01-17T13:27:46.619Z,44.17
2023-01-17T13:30:49.580Z,43.81
2023-01-17T13:33:33.479Z,44.04
2023-01-17T13:36:19.333Z,43.72
2023-01-17T13:39:05.956Z,43.73
2023-01-17T13:41:52.005Z,43.98
2023-01-17T13:44:27.182Z,43.61
2023-01-17T13:47:00.949Z,43.57
2023-01-17T13:49:47.616Z,43.82
2023-01-17T13:52:33.553Z,43.33
2023-01-17T13:55:07.214Z,43.72
2023-01-17T13:57:43.707Z,43.19
2023-01-17T14:00:59.530Z,43.19
2023-01-17T14:04:07.284Z,43.22
2023-01-17T14:06:41.594Z,43.34
2023-01-17T14:09:20.556Z,43.00
2023-01-17T14:11:58.576Z,43.05
2023-01-17T14:14:56.973Z,42.83
2023-01-17T14:17:47.991Z,42.53
2023-01-17T14:20:41.515Z,43.07
2023-01-17T14:23:28.264Z,43.11
2023-01-17T14:26:13.409Z,43.43
2023-01-17T14:28:43.922Z,43.77
2023-01-17T14:31:16.653Z,43.30
2023-01-17T14:33:47.145Z,43.29
2023-01-17T14:36:26.980Z,43.24
2023-01-17T14:38:57.595Z,43.45
2023-01-17T14:41:30.454Z,43.43
2023-01-17T14:44:01.336Z,43.16
2023-01-17T14:46:33.598Z,43.66
2023-01-17T14:49:06.921Z,43.67
2023-01-17T14:51:38.981Z,44.01
2023-01-17T14:54:19.254Z,44.13
2023-01-17T14:56:49.763Z,44.24
2023-01-17T14:59:23.045Z,44.52
2023-01-17T15:02:07.286Z,44.62
2023-01-17T15:04:40.383Z,44.88
2023-01-17T15:07:18.808Z,44.81
2023-01-17T15:09:49.297Z,44.95
2023-01-17T15:12:20.052Z,45.20
2023-01-17T15:14:51.828Z,45.27
2023-01-17T15:17:24.867Z,45.34
2023-01-17T15:19:58.729Z,45.31
2023-01-17T15:22:30.179Z,45.42
2023-01-17T15:25:02.287Z,45.57
2023-01-17T15:27:33.317Z,47.87
2023-01-17T15:30:07.515Z,48.35
2023-01-17T15:32:39.405Z,47.58
2023-01-17T15:35:19.894Z,47.62
2023-01-17T15:37:56.074Z,47.16
2023-01-17T15:40:28.160Z,46.60
2023-01-17T15:43:01.402Z,46.40
2023-01-17T15:45:33.804Z,46.71
2023-01-17T15:48:37.739Z,46.30
2023-01-17T15:51:08.979Z,46.42
2023-01-17T15:53:41.376Z,46.68
2023-01-17T15:56:32.565Z,46.65
2023-01-17T15:59:19.057Z,46.73
2023-01-17T16:01:57.134Z,46.73
2023-01-17T16:04:37.252Z,46.74
2023-01-17T16:07:21.001Z,46.43
2023-01-17T16:09:51.715Z,46.81
2023-01-17T16:12:22.132Z,46.86
2023-01-17T16:15:10.727Z,46.74
2023-01-17T16:17:46.616Z,46.61
2023-01-17T16:20:22.270Z,47.21
2023-01-17T16:22:53.998Z,47.49
2023-01-17T16:25:29.077Z,47.29
2023-01-17T16:27:59.584Z,47.63
2023-01-17T16:30:31.782Z,47.20
2023-01-17T16:33:03.745Z,47.27
2023-01-17T16:35:35.430Z,47.49
2023-01-17T16:38:08.697Z,47.38
2023-01-17T16:40:44.510Z,47.29
2023-01-17T16:43:16.213Z,47.62
2023-01-17T16:45:49.384Z,47.50
2023-01-17T16:48:20.119Z,47.66
2023-01-17T16:50:53.255Z,47.75
2023-01-17T16:53:25.459Z,47.87
2023-01-17T16:55:55.915Z,47.39
2023-01-17T16:58:26.603Z,47.89
2023-01-17T17:00:57.854Z,47.76
2023-01-17T17:03:28.318Z,47.83
2023-01-17T17:06:01.136Z,47.72
2023-01-17T17:08:36.553Z,48.02
2023-01-17T17:11:15.560Z,48.66
2023-01-17T17:13:49.911Z,48.25
2023-01-17T17:16:22.449Z,48.36
2023-01-17T17:18:59.355Z,48.57
2023-01-17T17:21:31.845Z,48.57
2023-01-17T17:24:05.119Z,48.26
2023-01-17T17:26:37.673Z,48.28
2023-01-17T17:29:10.418Z,48.44
2023-01-17T17:31:42.046Z,48.64
2023-01-17T17:34:14.406Z,48.41
2023-01-17T17:36:43.352Z,48.46
2023-01-17T17:39:15.820Z,48.80
2023-01-17T17:41:47.086Z,48.93
2023-01-17T17:44:17.772Z,49.17
2023-01-17T17:46:49.307Z,49.07
2023-01-17T17:49:21.818Z,49.25
2023-01-17T17:51:53.450Z,49.42
2023-01-17T17:54:24.733Z,49.10
2023-01-17T17:56:55.952Z,49.15
2023-01-17T17:59:26.441Z,49.22
2023-01-17T18:01:57.096Z,48.99
2023-01-17T18:04:28.208Z,48.65
2023-01-17T18:06:59.600Z,48.92
2023-01-17T18:09:31.119Z,48.76
2023-01-17T18:12:02.951Z,48.95
2023-01-17T18:14:34.779Z,49.11
2023-01-17T18:17:05.235Z,49.26
2023-01-17T18:19:35.685Z,49.13
2023-01-17T18:22:08.203Z,49.31
2023-01-17T18:24:38.787Z,49.48
2023-01-17T18:27:10.605Z,49.25
2023-01-17T18:29:41.063Z,49.36
2023-01-17T18:32:13.220Z,49.45
2023-01-17T18:34:43.720Z,49.61
2023-01-17T18:37:14.230Z,49.62
2023-01-17T18:39:44.672Z,49.71
2023-01-17T18:42:15.135Z,49.79
2023-01-17T18:44:45.579Z,49.61
2023-01-17T18:47:16.577Z,49.63
2023-01-17T18:49:47.024Z,49.98
2023-01-17T18:52:19.681Z,49.61
2023-01-17T18:54:50.175Z,49.69
2023-01-17T18:57:20.642Z,49.85
2023-01-17T18:59:51.166Z,49.86
2023-01-17T19:02:21.685Z,50.16
2023-01-17T19:04:52.506Z,49.75
2023-01-17T19:07:24.215Z,50.10
2023-01-17T19:09:54.824Z,49.91
2023-01-17T19:12:25.741Z,50.17
2023-01-17T19:14:56.152Z,49.85
2023-01-17T19:17:26.676Z,50.04
2023-01-17T19:19:57.202Z,50.08
2023-01-17T19:22:27.851Z,50.59
2023-01-17T19:24:58.251Z,50.19
2023-01-17T19:27:28.705Z,50.62
2023-01-17T19:29:59.096Z,50.55
2023-01-17T19:32:29.608Z,50.36
2023-01-17T19:35:00.095Z,50.81
2023-01-17T19:37:30.596Z,50.97
2023-01-17T19:40:01.060Z,50.98
2023-01-17T19:42:31.971Z,50.85
2023-01-17T19:45:02.590Z,50.68
2023-01-17T19:47:33.996Z,51.14
2023-01-17T19:50:08.227Z,51.15
2023-01-17T19:52:38.978Z,51.05
2023-01-17T19:55:10.874Z,51.56
2023-01-17T19:57:41.536Z,51.44
2023-01-17T20:00:17.890Z,51.48
2023-01-17T20:02:48.664Z,51.71
2023-01-17T20:05:19.788Z,51.68
2023-01-17T20:07:50.848Z,51.75
2023-01-17T20:10:21.507Z,52.18
2023-01-17T20:12:52.236Z,52.17
2023-01-17T20:15:24.060Z,51.92
2023-01-17T20:17:54.911Z,52.06
2023-01-17T20:20:25.626Z,52.41
2023-01-17T20:22:56.058Z,52.25
2023-01-17T20:25:26.517Z,52.39
2023-01-17T20:27:57.139Z,52.24
2023-01-17T20:30:30.480Z,52.72
2023-01-17T20:33:01.336Z,52.74
2023-01-17T20:35:33.498Z,52.86
2023-01-17T20:38:03.932Z,52.94
2023-01-17T20:40:34.380Z,52.97
2023-01-17T20:43:04.904Z,52.94
2023-01-17T20:45:35.432Z,52.97
2023-01-17T20:48:06.102Z,53.26
2023-01-17T20:50:37.026Z,53.17
2023-01-17T20:53:07.444Z,53.15
2023-01-17T20:55:40.029Z,53.31
2023-01-17T20:58:10.582Z,53.51
2023-01-17T21:00:41.030Z,53.64
2023-01-17T21:03:11.460Z,53.86
2023-01-17T21:05:41.943Z,53.93
2023-01-17T21:08:17.770Z,54.13
2023-01-17T21:10:50.622Z,54.31
2023-01-17T21:13:21.503Z,54.31
2023-01-17T21:15:52.584Z,54.60
2023-01-17T21:18:25.319Z,54.44
2023-01-17T21:20:55.944Z,54.57
2023-01-17T21:23:29.448Z,54.68
2023-01-17T21:26:00.483Z,54.91
2023-01-17T21:28:32.592Z,55.17
2023-01-17T21:31:16.990Z,55.21
2023-01-17T21:33:47.858Z,55.25
2023-01-17T21:36:18.490Z,55.52
2023-01-17T21:38:52.145Z,55.39
2023-01-17T21:41:24.658Z,55.73
2023-01-17T21:43:56.117Z,55.68
2023-01-17T21:46:27.889Z,55.72
2023-01-17T21:48:58.635Z,55.99
2023-01-17T21:51:43.277Z,55.96
2023-01-17T21:54:14.209Z,56.13
2023-01-17T21:57:02.571Z,55.94
2023-01-17T21:59:34.468Z,56.42
2023-01-17T22:02:04.944Z,56.28
2023-01-17T22:04:36.195Z,56.49
2023-01-17T22:07:06.636Z,56.48
2023-01-17T22:09:37.157Z,56.51
2023-01-17T22:12:08.873Z,56.58
2023-01-17T22:14:40.163Z,56.66
2023-01-17T22:17:10.619Z,56.73
2023-01-17T22:19:41.092Z,56.89
2023-01-17T22:22:11.496Z,56.94
2023-01-17T22:24:41.977Z,57.00
2023-01-17T22:27:13.745Z,57.04
2023-01-17T22:29:44.332Z,57.23
2023-01-17T22:32:14.800Z,57.41
2023-01-17T22:34:45.236Z,57.67
2023-01-17T22:37:16.100Z,57.73
2023-01-17T22:39:46.528Z,57.89
2023-01-17T22:42:16.932Z,57.92
2023-01-17T22:44:47.851Z,57.92
2023-01-17T22:47:18.647Z,58.18
2023-01-17T22:49:49.136Z,58.12
2023-01-17T22:52:19.639Z,58.20
2023-01-17T22:54:51.316Z,58.52
2023-01-17T22:57:23.215Z,58.42
2023-01-17T22:59:53.667Z,58.62
2023-01-17T23:02:24.178Z,58.52
2023-01-17T23:04:54.660Z,58.56
2023-01-17T23:07:31.014Z,58.58
2023-01-17T23:10:01.429Z,58.62
2023-01-17T23:12:31.903Z,58.66
2023-01-17T23:15:25.331Z,58.71
2023-01-17T23:18:14.683Z,58.86
2023-01-17T23:20:45.092Z,58.85
2023-01-17T23:23:15.503Z,59.08
2023-01-17T23:25:45.890Z,59.15
2023-01-17T23:28:20.955Z,59.25
2023-01-17T23:30:51.374Z,59.45
2023-01-17T23:33:21.871Z,59.64
2023-01-17T23:35:52.345Z,59.76
2023-01-17T23:38:29.998Z,59.88
2023-01-17T23:41:23.173Z,59.73
2023-01-17T23:43:55.118Z,59.90
2023-01-17T23:46:27.205Z,59.79
2023-01-17T23:48:57.716Z,59.86
2023-01-17T23:51:28.217Z,60.00
2023-01-17T23:54:05.618Z,59.88
2023-01-17T23:56:36.285Z,60.07
2023-01-17T23:59:06.748Z,60.10
